Time;durP1;ratioP1;P1;durP2;ratioP2;P2;SDS_P1;SDS_P2;PMS_P1;PMS_P2;Temp;Humidity;BMP_temperature;BMP_pressure;BME280_temperature;BME280_humidity;BME280_pressure;Samples;Min_cycle;Max_cycle;Signal;HPM_P1;HPM_P2
2022/01/20 00:01:11;;;;;;;8.98;4.03;;;-3.00;99.90;;;;;;5084221;28;20095;-77
2022/01/20 00:03:40;;;;;;;8.48;4.15;;;-3.10;99.90;;;;;;5089767;28;20389;-77
2022/01/20 00:08:50;;;;;;;12.13;4.50;;;-3.10;99.90;;;;;;5086715;28;20029;-77
2022/01/20 00:27:51;;;;;;;9.82;4.75;;;-2.80;99.90;;;;;;5084076;28;20054;-77
2022/01/20 00:35:19;;;;;;;12.07;5.03;;;-2.90;99.90;;;;;;5084612;28;20020;-77
2022/01/20 00:37:45;;;;;;;10.52;4.75;;;-2.90;99.90;;;;;;5078127;28;20093;-77
2022/01/20 00:40:11;;;;;;;9.68;5.00;;;-2.90;99.90;;;;;;5095326;28;20031;-77
2022/01/20 00:42:37;;;;;;;9.45;4.55;;;-2.90;99.90;;;;;;5066931;28;20024;-77
2022/01/20 00:45:04;;;;;;;8.05;4.00;;;-2.90;99.90;;;;;;5084885;28;20166;-77
2022/01/20 00:47:29;;;;;;;11.10;4.93;;;-2.90;99.90;;;;;;5091834;28;20031;-77
2022/01/20 00:49:55;;;;;;;8.45;4.70;;;-2.80;99.90;;;;;;5091152;28;20036;-77
2022/01/20 00:52:21;;;;;;;8.98;5.00;;;-2.80;99.90;;;;;;5095866;28;20024;-77
2022/01/20 00:54:47;;;;;;;11.10;4.65;;;-2.80;99.90;;;;;;5086606;28;20472;-77
2022/01/20 00:57:14;;;;;;;9.60;4.60;;;-2.70;99.90;;;;;;5082444;28;20025;-77
2022/01/20 00:59:40;;;;;;;10.15;5.05;;;-2.70;99.90;;;;;;5079611;28;20024;-77
2022/01/20 01:02:08;;;;;;;9.15;4.65;;;-2.70;99.90;;;;;;5067901;28;20369;-77
2022/01/20 01:04:34;;;;;;;9.63;3.95;;;-2.60;99.90;;;;;;5092890;28;20465;-77
2022/01/20 01:09:29;;;;;;;9.07;4.40;;;-2.70;99.90;;;;;;5094204;28;20024;-77
2022/01/20 01:12:00;;;;;;;12.70;5.10;;;-2.70;99.90;;;;;;5094450;28;20078;-77
2022/01/20 01:14:28;;;;;;;;;;;-2.70;99.90;;;;;;5071373;28;20024;-77
2022/01/20 01:24:41;;;;;;;9.18;4.00;;;-2.60;99.90;;;;;;5088073;28;20035;-77
2022/01/20 01:27:07;;;;;;;9.20;3.60;;;-2.60;99.90;;;;;;5079857;28;20473;-77
2022/01/20 01:32:20;;;;;;;7.25;4.10;;;-2.50;99.90;;;;;;5091827;28;20048;-77
2022/01/20 01:34:50;;;;;;;9.60;4.30;;;-2.50;99.90;;;;;;5093894;28;20031;-77
2022/01/20 01:40:12;;;;;;;11.20;5.22;;;-2.40;99.90;;;;;;5093603;28;20024;-77
2022/01/20 01:42:44;;;;;;;9.27;3.92;;;-2.40;99.90;;;;;;5064632;28;20032;-77
2022/01/20 01:45:15;;;;;;;9.98;4.75;;;-2.30;99.90;;;;;;5072447;28;20024;-77
2022/01/20 01:47:41;;;;;;;8.23;4.55;;;-2.30;99.90;;;;;;5092946;28;20032;-77
2022/01/20 01:50:07;;;;;;;7.10;3.72;;;-2.30;99.90;;;;;;5069661;28;20036;-77
2022/01/20 01:52:33;;;;;;;6.75;3.88;;;-2.30;99.90;;;;;;5056977;28;20093;-77
2022/01/20 01:54:58;;;;;;;10.02;4.30;;;-2.20;99.90;;;;;;5089549;28;20095;-77
2022/01/20 01:57:25;;;;;;;9.57;3.88;;;-2.20;99.90;;;;;;5092232;28;20039;-77
2022/01/20 01:59:52;;;;;;;9.38;4.13;;;-2.20;99.90;;;;;;5093991;28;20032;-77
2022/01/20 02:02:18;;;;;;;8.18;3.97;;;-2.20;99.90;;;;;;5080925;28;20043;-77
2022/01/20 02:04:44;;;;;;;10.55;3.95;;;-2.20;99.90;;;;;;5088666;28;20048;-77
2022/01/20 02:20:22;;;;;;;9.38;5.28;;;-2.30;99.90;;;;;;5094207;28;20111;-77
2022/01/20 02:22:49;;;;;;;11.80;5.28;;;-2.30;99.90;;;;;;5074636;28;20126;-77
2022/01/20 02:25:27;;;;;;;14.70;5.65;;;-2.20;99.90;;;;;;5093533;28;20031;-77
2022/01/20 02:27:54;;;;;;;11.98;5.03;;;-2.20;99.90;;;;;;5092856;28;20556;-77
2022/01/20 02:30:22;;;;;;;12.70;5.57;;;-2.20;99.90;;;;;;5089406;28;20085;-77
2022/01/20 02:32:59;;;;;;;10.30;4.80;;;-2.20;99.90;;;;;;5083933;28;20178;-77
2022/01/20 02:35:28;;;;;;;10.05;4.88;;;-2.20;99.90;;;;;;5083877;28;20037;-77
2022/01/20 02:38:05;;;;;;;11.00;4.45;;;-2.20;99.90;;;;;;5076424;28;20032;-77
2022/01/20 02:45:50;;;;;;;8.63;4.15;;;-2.20;99.90;;;;;;5092000;28;20031;-77
2022/01/20 02:48:16;;;;;;;8.75;4.00;;;-2.30;99.90;;;;;;5075021;28;20020;-77
2022/01/20 02:50:41;;;;;;;8.82;4.22;;;-2.30;99.90;;;;;;5093588;28;20437;-77
2022/01/20 02:53:07;;;;;;;10.35;4.38;;;-2.30;99.90;;;;;;5083282;28;20104;-77
2022/01/20 02:55:33;;;;;;;8.95;4.75;;;-2.30;99.90;;;;;;5092968;28;20081;-77
2022/01/20 02:57:59;;;;;;;11.18;4.50;;;-2.20;99.90;;;;;;5092032;28;20029;-77
2022/01/20 03:00:26;;;;;;;11.10;4.97;;;-2.20;99.90;;;;;;5093305;28;20122;-77
2022/01/20 03:02:52;;;;;;;9.80;4.70;;;-2.20;99.90;;;;;;5092119;28;20033;-76
2022/01/20 03:05:17;;;;;;;9.98;4.60;;;-2.10;99.90;;;;;;5093701;28;20078;-77
2022/01/20 03:07:45;;;;;;;9.52;5.22;;;-2.10;99.90;;;;;;5074880;28;20024;-77
2022/01/20 03:10:11;;;;;;;10.98;4.57;;;-2.00;99.90;;;;;;5093617;28;20028;-77
2022/01/20 03:12:37;;;;;;;9.48;4.75;;;-2.00;99.90;;;;;;5092472;28;20031;-76
2022/01/20 03:15:03;;;;;;;10.60;4.90;;;-2.00;99.90;;;;;;5092869;28;20024;-77
2022/01/20 03:17:30;;;;;;;9.40;4.95;;;-2.00;99.90;;;;;;5067289;28;20040;-77
2022/01/20 03:19:56;;;;;;;8.60;4.22;;;-2.00;99.90;;;;;;5093584;28;20019;-77
2022/01/20 03:22:22;;;;;;;12.48;5.63;;;-2.00;99.90;;;;;;5089950;28;20020;-77
2022/01/20 03:24:47;;;;;;;9.02;4.70;;;-2.00;99.90;;;;;;5093133;28;20414;-77
2022/01/20 03:27:13;;;;;;;19.45;8.77;;;-2.00;99.90;;;;;;5072403;28;20441;-77
2022/01/20 03:29:39;;;;;;;33.08;14.88;;;-2.10;99.90;;;;;;5074558;28;20492;-77
2022/01/20 03:32:05;;;;;;;27.33;11.85;;;-2.10;99.90;;;;;;5090148;28;20029;-77
2022/01/20 03:34:30;;;;;;;17.25;8.48;;;-2.10;99.90;;;;;;5074969;28;20395;-77
2022/01/20 03:36:56;;;;;;;13.93;7.22;;;-2.20;99.90;;;;;;5088367;28;20100;-77
2022/01/20 03:39:22;;;;;;;13.18;6.60;;;-2.20;99.90;;;;;;5090384;28;20103;-77
2022/01/20 03:41:48;;;;;;;11.63;5.78;;;-2.10;99.90;;;;;;5084200;28;20021;-77
2022/01/20 03:44:16;;;;;;;12.75;5.53;;;-2.10;99.90;;;;;;5074502;28;20468;-77
2022/01/20 03:46:42;;;;;;;8.80;5.07;;;-2.10;99.90;;;;;;5085709;28;20024;-77
2022/01/20 03:49:25;;;;;;;11.57;5.50;;;-2.10;99.90;;;;;;5096951;28;20528;-77
2022/01/20 03:51:51;;;;;;;13.65;6.40;;;-2.00;99.90;;;;;;5059533;28;20117;-77
2022/01/20 03:54:17;;;;;;;12.57;5.57;;;-2.00;99.90;;;;;;5097343;28;20039;-76
2022/01/20 03:56:42;;;;;;;11.10;5.85;;;-1.90;99.90;;;;;;5095345;28;20077;-77
2022/01/20 03:59:08;;;;;;;12.45;5.90;;;-1.90;99.90;;;;;;5075857;28;20024;-77
2022/01/20 04:01:34;;;;;;;13.02;5.68;;;-1.90;99.90;;;;;;5096991;28;20090;-76
2022/01/20 04:03:59;;;;;;;11.48;5.47;;;-1.90;99.90;;;;;;5095508;28;20035;-77
2022/01/20 04:06:27;;;;;;;11.13;6.00;;;-1.80;99.90;;;;;;5096301;28;20028;-76
2022/01/20 04:08:53;;;;;;;11.68;5.47;;;-1.90;99.90;;;;;;5084262;28;20024;-76
2022/01/20 04:11:24;;;;;;;13.95;6.30;;;-1.80;99.90;;;;;;5077812;28;20029;-77
2022/01/20 04:13:51;;;;;;;10.75;5.47;;;-1.90;99.90;;;;;;5090304;28;20035;-76
2022/01/20 04:16:23;;;;;;;11.70;5.18;;;-1.80;99.90;;;;;;5086960;28;20063;-77
2022/01/20 04:18:55;;;;;;;11.32;5.47;;;-1.80;99.90;;;;;;5080185;28;20025;-77
2022/01/20 04:21:26;;;;;;;8.88;4.93;;;-1.80;99.90;;;;;;5092527;28;20062;-77
2022/01/20 04:23:52;;;;;;;14.20;5.90;;;-1.80;99.90;;;;;;5092451;28;20016;-77
2022/01/20 04:26:19;;;;;;;9.73;5.28;;;-1.80;99.90;;;;;;5076207;28;20036;-77
2022/01/20 04:28:45;;;;;;;9.25;4.93;;;-1.80;99.90;;;;;;5095211;28;20035;-77
2022/01/20 04:31:11;;;;;;;11.43;5.20;;;-1.80;99.90;;;;;;5082968;28;20048;-77
2022/01/20 04:33:37;;;;;;;10.13;5.13;;;-1.80;99.90;;;;;;5093585;28;20036;-77
2022/01/20 04:36:05;;;;;;;13.00;5.78;;;-1.70;99.90;;;;;;5095065;28;20046;-77
2022/01/20 04:38:31;;;;;;;14.07;6.20;;;-1.70;99.90;;;;;;5094188;28;20028;-77
2022/01/20 04:40:57;;;;;;;10.35;5.53;;;-1.60;99.90;;;;;;5096218;28;20066;-77
2022/01/20 04:43:24;;;;;;;11.70;5.72;;;-1.60;99.90;;;;;;5089977;28;20020;-77
2022/01/20 04:46:02;;;;;;;8.95;5.30;;;-1.60;99.90;;;;;;5077107;28;20024;-77
2022/01/20 04:48:47;;;;;;;12.10;5.78;;;-1.60;99.90;;;;;;5093591;28;20043;-77
2022/01/20 04:59:25;;;;;;;12.10;6.30;;;-1.70;99.90;;;;;;5082022;28;20433;-77
2022/01/20 05:01:51;;;;;;;10.63;6.03;;;-1.70;99.90;;;;;;5082444;28;20021;-77
2022/01/20 05:04:17;;;;;;;13.18;6.68;;;-1.70;99.90;;;;;;5092883;28;20093;-77
2022/01/20 05:06:44;;;;;;;10.30;6.10;;;-1.70;99.90;;;;;;5089486;28;20024;-77
2022/01/20 05:09:17;;;;;;;12.88;6.25;;;-1.70;99.90;;;;;;5076199;28;20476;-77
2022/01/20 05:11:48;;;;;;;10.38;5.60;;;-1.70;99.90;;;;;;5066667;28;20028;-77
2022/01/20 05:14:14;;;;;;;12.07;5.57;;;-1.70;99.90;;;;;;5085013;28;20031;-77
2022/01/20 05:16:40;;;;;;;10.68;5.28;;;-1.60;99.90;;;;;;5076461;28;20401;-77
2022/01/20 05:19:06;;;;;;;11.73;5.72;;;-1.60;99.90;;;;;;5076686;28;20035;-77
2022/01/20 05:21:32;;;;;;;11.30;5.25;;;-1.60;99.90;;;;;;5094287;28;20407;-77
2022/01/20 05:23:58;;;;;;;9.75;5.20;;;-1.60;99.90;;;;;;5084468;28;20054;-77
2022/01/20 05:26:24;;;;;;;9.40;4.80;;;-1.60;99.90;;;;;;5076196;28;20036;-77
2022/01/20 05:28:49;;;;;;;14.07;6.35;;;-1.60;99.90;;;;;;5093450;28;20089;-77
2022/01/20 05:31:15;;;;;;;19.70;7.45;;;-1.60;99.90;;;;;;5083675;28;20024;-77
2022/01/20 05:33:41;;;;;;;26.25;9.80;;;-1.60;99.90;;;;;;5094819;28;20031;-77
2022/01/20 05:36:07;;;;;;;22.13;10.48;;;-1.60;99.90;;;;;;5095055;28;20024;-77
2022/01/20 05:38:33;;;;;;;23.95;9.90;;;-1.60;99.90;;;;;;5062010;28;20111;-77
2022/01/20 05:40:58;;;;;;;19.88;9.43;;;-1.60;99.90;;;;;;5094580;28;20024;-77
2022/01/20 05:43:24;;;;;;;22.33;9.07;;;-1.60;99.90;;;;;;5063806;28;20056;-77
2022/01/20 05:45:50;;;;;;;15.98;7.90;;;-1.50;99.90;;;;;;5065059;28;20035;-77
2022/01/20 05:48:20;;;;;;;13.23;6.90;;;-1.50;99.90;;;;;;5082318;28;20031;-77
2022/01/20 05:50:46;;;;;;;13.98;6.80;;;-1.50;99.90;;;;;;5074486;28;20021;-77
2022/01/20 05:53:12;;;;;;;16.05;7.95;;;-1.50;99.90;;;;;;5083447;28;20023;-77
2022/01/20 05:55:38;;;;;;;16.38;8.85;;;-1.50;99.90;;;;;;5079623;28;20107;-77
2022/01/20 05:58:07;;;;;;;16.90;9.40;;;-1.50;99.90;;;;;;5076231;28;20070;-77
2022/01/20 06:00:36;;;;;;;15.70;7.93;;;-1.50;99.90;;;;;;5069126;28;20082;-77
2022/01/20 06:05:47;;;;;;;13.32;7.22;;;-1.50;99.90;;;;;;5090549;28;20135;-77
2022/01/20 06:08:15;;;;;;;13.05;7.30;;;-1.50;99.90;;;;;;5073589;28;20094;-77
2022/01/20 06:10:41;;;;;;;16.13;7.28;;;-1.50;99.90;;;;;;5078892;28;20024;-77
2022/01/20 06:13:07;;;;;;;14.10;7.00;;;-1.50;99.90;;;;;;5087942;28;20411;-77
2022/01/20 06:15:32;;;;;;;13.55;7.22;;;-1.50;99.90;;;;;;5093823;28;20024;-77
2022/01/20 06:17:58;;;;;;;17.17;8.10;;;-1.50;99.90;;;;;;5093984;28;20127;-77
2022/01/20 06:20:24;;;;;;;17.40;8.38;;;-1.50;99.90;;;;;;5086156;28;20028;-77
2022/01/20 06:22:50;;;;;;;20.08;9.50;;;-1.50;99.90;;;;;;5073711;28;20024;-77
2022/01/20 06:25:15;;;;;;;21.50;9.45;;;-1.50;99.90;;;;;;5073524;28;20027;-77
2022/01/20 06:27:41;;;;;;;16.98;9.20;;;-1.50;99.90;;;;;;5069457;28;20057;-77
2022/01/20 06:30:08;;;;;;;16.80;8.25;;;-1.50;99.90;;;;;;5094125;28;20482;-77
2022/01/20 06:32:34;;;;;;;15.60;8.25;;;-1.50;99.90;;;;;;5086533;28;20048;-77
2022/01/20 06:35:00;;;;;;;16.98;8.65;;;-1.50;99.90;;;;;;5075437;28;20040;-77
2022/01/20 06:37:27;;;;;;;12.88;7.10;;;-1.50;99.90;;;;;;5093839;28;20464;-77
2022/01/20 06:39:52;;;;;;;14.75;7.97;;;-1.50;99.90;;;;;;5092461;28;20048;-77
2022/01/20 06:42:18;;;;;;;17.30;7.72;;;-1.40;99.90;;;;;;5091844;28;20052;-77
2022/01/20 06:44:44;;;;;;;15.52;8.77;;;-1.50;99.90;;;;;;5077666;28;20182;-77
2022/01/20 06:47:10;;;;;;;15.98;8.80;;;-1.50;99.90;;;;;;5086844;28;20044;-77
2022/01/20 06:49:36;;;;;;;17.80;9.10;;;-1.50;99.90;;;;;;5075594;28;20025;-77
2022/01/20 06:52:01;;;;;;;15.20;8.57;;;-1.50;99.90;;;;;;5074717;28;20028;-77
2022/01/20 06:54:27;;;;;;;19.13;9.85;;;-1.40;99.90;;;;;;5073284;28;20021;-77
2022/01/20 06:56:53;;;;;;;20.67;10.57;;;-1.40;99.90;;;;;;5084640;28;20029;-77
2022/01/20 06:59:19;;;;;;;22.08;11.32;;;-1.40;99.90;;;;;;5092366;28;20392;-77
2022/01/20 07:01:48;;;;;;;22.67;10.70;;;-1.40;99.90;;;;;;5093558;28;20037;-77
2022/01/20 07:04:15;;;;;;;25.13;10.38;;;-1.40;99.90;;;;;;5056241;28;20028;-77
2022/01/20 07:06:41;;;;;;;16.45;9.45;;;-1.40;99.90;;;;;;5073161;28;20403;-77
2022/01/20 07:09:09;;;;;;;21.50;10.57;;;-1.40;99.90;;;;;;5090388;28;20033;-77
2022/01/20 07:11:35;;;;;;;19.17;9.88;;;-1.40;99.90;;;;;;5073227;28;20491;-77
2022/01/20 07:14:01;;;;;;;21.63;10.25;;;-1.40;99.90;;;;;;5081109;28;20032;-77
2022/01/20 07:16:28;;;;;;;17.33;9.90;;;-1.40;99.90;;;;;;5074337;28;20028;-77
2022/01/20 07:18:55;;;;;;;18.08;9.18;;;-1.40;99.90;;;;;;5093570;28;20385;-77
2022/01/20 07:21:21;;;;;;;24.48;14.40;;;-1.40;99.90;;;;;;5095679;28;20034;-77
2022/01/20 07:23:47;;;;;;;27.08;14.65;;;-1.40;99.90;;;;;;5085947;28;20032;-77
2022/01/20 07:26:13;;;;;;;22.60;12.63;;;-1.40;99.90;;;;;;5078991;28;20480;-77
2022/01/20 07:28:39;;;;;;;24.73;11.05;;;-1.40;99.90;;;;;;5085745;28;20043;-77
2022/01/20 07:31:06;;;;;;;25.15;9.98;;;-1.40;99.90;;;;;;5077003;28;20040;-77
2022/01/20 07:33:32;;;;;;;21.40;9.85;;;-1.40;99.90;;;;;;5092695;28;20077;-77
2022/01/20 07:35:57;;;;;;;20.65;9.55;;;-1.40;99.90;;;;;;5097024;28;20032;-77
2022/01/20 07:38:23;;;;;;;20.00;10.15;;;-1.40;99.90;;;;;;5091439;28;20020;-77
2022/01/20 07:40:49;;;;;;;18.50;9.52;;;-1.40;99.90;;;;;;5085469;28;20487;-77
2022/01/20 07:43:15;;;;;;;17.35;9.00;;;-1.40;99.90;;;;;;5081766;28;20025;-77
2022/01/20 07:45:41;;;;;;;18.23;8.68;;;-1.30;99.90;;;;;;5084260;28;20028;-77
2022/01/20 07:48:07;;;;;;;25.33;11.65;;;-1.30;99.90;;;;;;5097126;28;20380;-77
2022/01/20 07:50:32;;;;;;;28.77;13.05;;;-1.30;99.90;;;;;;5097022;28;20476;-77
2022/01/20 07:52:58;;;;;;;29.10;14.25;;;-1.20;99.90;;;;;;5083144;28;20025;-77
2022/01/20 07:55:24;;;;;;;28.83;13.98;;;-1.20;99.90;;;;;;5091903;28;20028;-77
2022/01/20 07:57:50;;;;;;;26.88;14.07;;;-1.20;99.90;;;;;;5084376;28;20499;-77
2022/01/20 08:00:16;;;;;;;29.15;13.93;;;-1.20;99.90;;;;;;5076268;28;20052;-77
2022/01/20 08:02:42;;;;;;;28.42;12.73;;;-1.20;99.90;;;;;;5078098;28;20017;-77
2022/01/20 08:05:08;;;;;;;25.13;11.85;;;-1.20;99.90;;;;;;5076965;28;20033;-77
2022/01/20 08:07:34;;;;;;;23.50;12.95;;;-1.20;99.90;;;;;;5062062;28;20024;-77
2022/01/20 08:10:00;;;;;;;23.63;11.48;;;-1.10;99.90;;;;;;5094822;28;20103;-77
2022/01/20 08:12:28;;;;;;;21.42;11.88;;;-1.00;99.90;;;;;;5094851;28;20032;-77
2022/01/20 08:14:55;;;;;;;19.92;10.70;;;-1.00;99.90;;;;;;5082172;28;20372;-77
2022/01/20 08:17:21;;;;;;;27.10;12.65;;;-1.00;99.90;;;;;;5077043;28;20392;-77
2022/01/20 08:19:48;;;;;;;23.15;12.93;;;-1.00;99.90;;;;;;5075938;28;20545;-77
2022/01/20 08:22:13;;;;;;;63.72;22.65;;;-1.00;99.90;;;;;;5084098;28;20027;-77
2022/01/20 08:24:41;;;;;;;73.53;27.48;;;-1.00;99.90;;;;;;5096664;28;20103;-77
2022/01/20 08:27:10;;;;;;;50.90;21.02;;;-0.90;99.90;;;;;;5089965;28;20075;-77
2022/01/20 08:29:37;;;;;;;40.42;17.98;;;-1.00;99.90;;;;;;5074937;28;20031;-77
2022/01/20 08:32:04;;;;;;;25.63;13.07;;;-1.00;99.90;;;;;;5090196;28;20028;-77
2022/01/20 08:34:29;;;;;;;32.90;15.52;;;-0.90;99.90;;;;;;5095962;28;20173;-77
2022/01/20 08:36:55;;;;;;;23.67;12.00;;;-0.90;99.90;;;;;;5084943;28;20510;-77
2022/01/20 08:42:01;;;;;;;29.90;15.10;;;-0.80;99.90;;;;;;5084602;28;20103;-77
2022/01/20 08:44:27;;;;;;;21.63;11.50;;;-0.80;99.90;;;;;;5096084;28;20028;-77
2022/01/20 08:46:54;;;;;;;33.40;14.23;;;-0.70;99.90;;;;;;5091492;28;20539;-77
2022/01/20 08:49:20;;;;;;;24.20;13.35;;;-0.70;99.90;;;;;;5081349;28;20020;-77
2022/01/20 08:51:46;;;;;;;25.73;13.60;;;-0.60;99.90;;;;;;5079946;28;20030;-77
2022/01/20 08:54:13;;;;;;;27.10;14.20;;;-0.50;99.90;;;;;;5084485;28;20020;-77
2022/01/20 08:56:40;;;;;;;25.33;13.20;;;-0.50;99.90;;;;;;5094586;28;20020;-77
2022/01/20 08:59:07;;;;;;;24.40;13.52;;;-0.50;99.90;;;;;;5078946;28;20050;-77
2022/01/20 09:01:35;;;;;;;32.25;16.58;;;-0.40;99.90;;;;;;5086145;28;20070;-77
2022/01/20 09:04:01;;;;;;;30.30;16.38;;;-0.40;99.90;;;;;;5095235;28;20036;-77
2022/01/20 09:06:27;;;;;;;30.67;14.63;;;-0.40;99.90;;;;;;5075351;28;20028;-77
2022/01/20 09:08:53;;;;;;;35.20;17.42;;;-0.30;99.90;;;;;;5058108;28;20070;-77
2022/01/20 09:11:22;;;;;;;35.20;17.05;;;-0.30;99.90;;;;;;5088730;28;20028;-77
2022/01/20 09:16:34;;;;;;;33.28;16.80;;;-0.20;99.90;;;;;;5077315;28;20067;-77
2022/01/20 09:19:00;;;;;;;29.33;15.55;;;-0.20;99.90;;;;;;5088366;28;20034;-77
2022/01/20 09:21:28;;;;;;;30.05;17.13;;;-0.10;99.90;;;;;;5092207;28;20024;-77
2022/01/20 09:23:54;;;;;;;29.85;16.60;;;-0.10;99.90;;;;;;5095149;28;20112;-77
2022/01/20 09:26:20;;;;;;;29.40;15.15;;;-0.10;99.90;;;;;;5094750;28;20024;-77
2022/01/20 09:28:46;;;;;;;30.85;14.90;;;-0.10;99.90;;;;;;5089050;28;20082;-77
2022/01/20 09:31:11;;;;;;;32.35;15.27;;;-0.10;99.90;;;;;;5076153;28;20032;-77
2022/01/20 09:33:39;;;;;;;30.10;16.08;;;-0.10;99.90;;;;;;5074802;28;20099;-77
2022/01/20 09:36:10;;;;;;;33.40;15.55;;;-0.10;99.90;;;;;;5067494;28;20028;-77
2022/01/20 09:38:36;;;;;;;27.17;14.52;;;-0.10;99.90;;;;;;5076880;28;20035;-77
2022/01/20 09:41:03;;;;;;;29.60;14.43;;;-0.10;99.90;;;;;;5085326;28;20028;-77
2022/01/20 09:43:30;;;;;;;29.42;15.00;;;-0.10;99.90;;;;;;5089466;28;20020;-77
2022/01/20 09:45:57;;;;;;;27.75;14.15;;;-0.10;99.90;;;;;;5092712;28;20087;-77
2022/01/20 09:48:24;;;;;;;28.35;15.95;;;-0.10;99.90;;;;;;5079912;28;20028;-77
2022/01/20 09:50:50;;;;;;;28.20;15.15;;;-0.10;99.90;;;;;;5093211;28;20024;-77
2022/01/20 09:53:16;;;;;;;28.00;15.48;;;-0.10;99.90;;;;;;5092889;28;20091;-77
2022/01/20 09:55:43;;;;;;;29.50;15.65;;;-0.20;99.90;;;;;;5087827;28;20514;-77
2022/01/20 09:58:10;;;;;;;38.53;21.27;;;-0.10;99.90;;;;;;5094336;28;20032;-77
2022/01/20 10:00:38;;;;;;;40.13;19.60;;;-0.10;99.90;;;;;;5089380;28;20039;-77
2022/01/20 10:03:10;;;;;;;42.03;20.63;;;-0.10;99.90;;;;;;5087420;28;20503;-77
2022/01/20 10:05:39;;;;;;;39.70;20.88;;;-0.10;99.90;;;;;;5088440;28;20380;-77
2022/01/20 10:08:07;;;;;;;40.97;20.98;;;-0.10;99.90;;;;;;5087984;28;20396;-77
2022/01/20 10:10:37;;;;;;;44.58;24.02;;;0.00;99.90;;;;;;5066889;28;20486;-77
2022/01/20 10:13:05;;;;;;;44.50;23.63;;;0.00;99.90;;;;;;5090377;28;20051;-77
2022/01/20 10:15:31;;;;;;;36.47;18.73;;;0.00;99.90;;;;;;5075392;28;20027;-77
2022/01/20 10:18:14;;;;;;;31.98;17.23;;;0.00;99.90;;;;;;5093889;28;20035;-77
2022/01/20 10:20:54;;;;;;;32.80;15.93;;;0.10;99.90;;;;;;5094222;28;20376;-77
2022/01/20 10:23:30;;;;;;;36.53;17.98;;;0.10;99.90;;;;;;5094314;28;20544;-77
2022/01/20 10:26:16;;;;;;;52.20;23.60;;;0.20;99.90;;;;;;5093911;28;20032;-77
2022/01/20 10:28:52;;;;;;;44.50;20.52;;;0.20;99.90;;;;;;5094296;28;20479;-77
2022/01/20 10:31:30;;;;;;;37.10;19.75;;;0.20;99.90;;;;;;5094261;28;20028;-77
2022/01/20 10:33:56;;;;;;;46.03;21.15;;;0.30;99.90;;;;;;5094443;28;20106;-77
2022/01/20 10:36:22;;;;;;;41.33;18.77;;;0.40;99.90;;;;;;5093655;28;20064;-77
2022/01/20 10:38:50;;;;;;;35.88;16.75;;;0.40;99.90;;;;;;5075696;28;20024;-77
2022/01/20 10:41:31;;;;;;;36.70;18.38;;;0.50;99.90;;;;;;5093889;28;20062;-77
2022/01/20 10:44:05;;;;;;;36.92;16.98;;;0.50;99.90;;;;;;5075706;28;20031;-77
2022/01/20 10:46:47;;;;;;;45.53;21.17;;;0.60;99.90;;;;;;5093893;28;20049;-77
2022/01/20 10:49:14;;;;;;;43.22;19.67;;;0.60;99.90;;;;;;5093615;28;20024;-77
2022/01/20 10:51:40;;;;;;;54.15;25.05;;;0.70;99.90;;;;;;5093703;28;20024;-77
2022/01/20 10:54:10;;;;;;;42.97;23.55;;;0.70;99.90;;;;;;5093571;28;20107;-77
2022/01/20 10:56:59;;;;;;;43.65;22.38;;;0.70;99.90;;;;;;5094153;28;20024;-77
2022/01/20 10:59:25;;;;;;;38.97;20.15;;;0.80;99.90;;;;;;5075391;28;20031;-77
2022/01/20 11:02:08;;;;;;;55.30;27.45;;;0.80;99.90;;;;;;5075532;28;20023;-77
2022/01/20 11:04:35;;;;;;;49.75;26.45;;;0.80;99.90;;;;;;5093530;28;20060;-77
2022/01/20 11:07:04;;;;;;;48.90;25.30;;;0.80;99.90;;;;;;5093492;28;20027;-77
2022/01/20 11:09:33;;;;;;;35.63;18.92;;;0.70;99.90;;;;;;5075349;28;20516;-77
2022/01/20 11:12:01;;;;;;;35.65;17.85;;;0.70;99.90;;;;;;5075246;28;20103;-77
2022/01/20 11:14:26;;;;;;;31.80;17.52;;;0.60;99.90;;;;;;5075288;28;20055;-77
2022/01/20 11:16:52;;;;;;;38.22;18.75;;;0.60;99.90;;;;;;5093385;28;20060;-77
2022/01/20 11:19:21;;;;;;;35.67;18.48;;;0.60;99.90;;;;;;5093376;28;20023;-77
2022/01/20 11:21:48;;;;;;;32.17;16.40;;;0.60;99.90;;;;;;5093705;28;20024;-77
2022/01/20 11:24:31;;;;;;;29.73;15.73;;;0.60;99.90;;;;;;5093615;28;20047;-77
2022/01/20 11:27:00;;;;;;;29.23;16.00;;;0.60;99.90;;;;;;5093603;28;20059;-77
2022/01/20 11:29:55;;;;;;;32.72;17.15;;;0.60;99.90;;;;;;5094267;28;20503;-77
2022/01/20 11:32:23;;;;;;;30.40;16.35;;;0.70;99.90;;;;;;5092157;28;20484;-77
2022/01/20 11:35:07;;;;;;;32.70;17.48;;;0.70;99.90;;;;;;5093376;28;20088;-77
2022/01/20 11:37:35;;;;;;;32.42;16.08;;;0.70;99.90;;;;;;5093375;28;20028;-77
2022/01/20 11:40:19;;;;;;;32.10;17.02;;;0.80;99.90;;;;;;5093621;28;20048;-77
2022/01/20 11:42:58;;;;;;;34.70;20.13;;;0.80;99.90;;;;;;5093885;28;20408;-77
2022/01/20 11:45:32;;;;;;;37.55;19.55;;;0.90;99.90;;;;;;5075244;28;20035;-77
2022/01/20 11:48:09;;;;;;;27.40;14.65;;;0.90;99.90;;;;;;5093383;28;20024;-77
2022/01/20 11:50:35;;;;;;;27.88;14.20;;;0.90;99.90;;;;;;5093464;28;20028;-77
2022/01/20 11:53:18;;;;;;;21.52;11.38;;;1.00;99.90;;;;;;5092925;28;20024;-77
2022/01/20 11:55:53;;;;;;;19.85;9.95;;;1.00;99.90;;;;;;5093432;28;20122;-77
2022/01/20 11:58:21;;;;;;;16.73;9.43;;;1.00;99.90;;;;;;5093386;28;20050;-77
2022/01/20 12:01:02;;;;;;;16.15;9.73;;;1.10;99.90;;;;;;5093283;28;20024;-77
2022/01/20 12:03:28;;;;;;;;;;;1.20;99.90;;;;;;5075197;28;20408;-77
2022/01/20 12:06:03;;;;;;;15.95;9.15;;;1.30;99.90;;;;;;5096132;28;19908;-77
2022/01/20 12:08:31;;;;;;;12.63;6.57;;;1.30;99.90;;;;;;5078192;28;20031;-77
2022/01/20 12:11:07;;;;;;;8.55;4.55;;;1.40;99.90;;;;;;5096688;28;20031;-77
2022/01/20 12:13:44;;;;;;;8.93;3.78;;;1.40;99.90;;;;;;5096767;28;20035;-77
2022/01/20 12:16:09;;;;;;;6.30;3.30;;;1.40;99.90;;;;;;5096867;28;20045;-77
2022/01/20 12:18:35;;;;;;;5.75;3.53;;;1.30;99.90;;;;;;5096384;28;20028;-77
2022/01/20 12:21:04;;;;;;;5.68;3.58;;;1.40;99.90;;;;;;5096626;28;20031;-77
2022/01/20 12:23:30;;;;;;;6.18;3.72;;;1.40;99.90;;;;;;5096731;28;20024;-77
2022/01/20 12:26:05;;;;;;;5.35;3.15;;;1.40;99.90;;;;;;5096363;28;20503;-78
2022/01/20 12:28:30;;;;;;;6.60;4.03;;;1.40;99.90;;;;;;5096148;28;20029;-77
2022/01/20 12:31:01;;;;;;;10.48;6.43;;;1.40;99.90;;;;;;5096181;28;20031;-77
2022/01/20 12:33:28;;;;;;;5.80;3.33;;;1.40;99.90;;;;;;5077989;28;20158;-77
2022/01/20 12:35:56;;;;;;;6.25;3.50;;;1.40;99.90;;;;;;5096220;28;20111;-77
2022/01/20 12:38:27;;;;;;;6.07;3.00;;;1.50;99.90;;;;;;5096108;28;20472;-77
2022/01/20 12:41:06;;;;;;;6.82;3.80;;;1.50;99.90;;;;;;5077781;28;20464;-77
2022/01/20 12:43:47;;;;;;;5.93;2.92;;;1.70;99.90;;;;;;5096190;28;20076;-77
2022/01/20 12:46:15;;;;;;;5.18;2.60;;;1.80;99.90;;;;;;5095813;28;20103;-77
2022/01/20 12:48:55;;;;;;;7.43;3.30;;;1.80;99.90;;;;;;5096109;28;20514;-77
2022/01/20 12:51:31;;;;;;;4.30;2.15;;;1.80;99.90;;;;;;5095747;28;20031;-77
2022/01/20 12:54:04;;;;;;;3.97;2.38;;;1.90;99.90;;;;;;5096054;28;20027;-77
2022/01/20 12:56:34;;;;;;;3.53;2.05;;;2.00;99.90;;;;;;5095936;28;20028;-77
2022/01/20 12:59:00;;;;;;;5.72;2.33;;;2.10;99.90;;;;;;5096316;28;20023;-77
2022/01/20 13:01:36;;;;;;;5.53;3.10;;;2.10;99.90;;;;;;5095936;28;20027;-78
2022/01/20 13:04:02;;;;;;;7.32;3.80;;;2.00;99.90;;;;;;5096382;28;20028;-77
2022/01/20 13:06:29;;;;;;;8.30;3.60;;;1.90;99.90;;;;;;5096452;28;20382;-78
2022/01/20 13:09:07;;;;;;;4.95;2.47;;;1.80;99.90;;;;;;5078355;28;20031;-79
2022/01/20 13:11:59;;;;;;;4.25;2.08;;;1.80;99.90;;;;;;5096582;28;20472;-78
2022/01/20 13:14:44;;;;;;;4.75;2.60;;;1.70;99.90;;;;;;5077790;28;20032;-78
2022/01/20 13:17:28;;;;;;;3.05;1.92;;;1.70;99.90;;;;;;5096068;28;20476;-78
2022/01/20 13:19:55;;;;;;;3.78;2.00;;;1.80;99.90;;;;;;5096432;28;20028;-78
2022/01/20 13:22:42;;;;;;;5.80;2.95;;;1.90;99.90;;;;;;5096058;28;20020;-78
2022/01/20 13:25:16;;;;;;;6.00;2.47;;;1.90;99.90;;;;;;5095443;28;20017;-78
2022/01/20 13:27:57;;;;;;;3.35;1.67;;;1.90;99.90;;;;;;5095958;28;20034;-78
2022/01/20 13:30:40;;;;;;;3.63;1.45;;;2.00;99.90;;;;;;5076907;28;20046;-78
2022/01/20 13:33:27;;;;;;;3.90;1.17;;;2.00;99.90;;;;;;5095589;28;20059;-78
2022/01/20 13:36:01;;;;;;;3.08;1.58;;;2.00;99.90;;;;;;5077632;28;20028;-78
2022/01/20 13:38:31;;;;;;;4.15;2.10;;;2.00;99.90;;;;;;5094438;28;20054;-78
2022/01/20 13:41:07;;;;;;;3.80;2.10;;;2.00;99.90;;;;;;5095679;28;20027;-78
2022/01/20 13:46:28;;;;;;;2.92;1.33;;;2.10;99.90;;;;;;5075749;28;20044;-79
2022/01/20 13:48:53;;;;;;;3.40;1.38;;;2.20;99.90;;;;;;5056157;28;20024;-79
2022/01/20 13:51:26;;;;;;;2.33;1.00;;;2.20;99.90;;;;;;5056767;28;20028;-79
2022/01/20 13:53:55;;;;;;;2.03;1.05;;;2.10;99.90;;;;;;5074995;28;20021;-79
2022/01/20 13:56:20;;;;;;;2.45;1.30;;;2.10;99.90;;;;;;5056556;28;20029;-79
2022/01/20 13:58:46;;;;;;;1.05;0.75;;;2.00;99.90;;;;;;5075158;28;20032;-79
2022/01/20 14:01:12;;;;;;;2.22;0.90;;;2.00;99.90;;;;;;5056573;28;20024;-79
2022/01/20 14:03:40;;;;;;;2.15;0.80;;;1.90;99.90;;;;;;5074090;28;20028;-79
2022/01/20 14:06:06;;;;;;;1.45;0.77;;;1.90;99.90;;;;;;5056483;28;20017;-79